Time;durP1;ratioP1;P1;durP2;ratioP2;P2;SDS_P1;SDS_P2;PMS_P1;PMS_P2;Temp;Humidity;BMP_temperature;BMP_pressure;BME280_temperature;BME280_humidity;BME280_pressure;Samples;Min_cycle;Max_cycle;Signal;HPM_P1;HPM_P2
2021/07/28 00:02:03;;;;;;;10.07;5.78;;;27.40;45.80;;;;;;5073036;28;20460;-67
2021/07/28 00:04:32;;;;;;;7.82;5.18;;;27.30;45.80;;;;;;5072867;28;20106;-68
2021/07/28 00:06:58;;;;;;;8.43;5.30;;;27.30;45.90;;;;;;5073026;28;20020;-67
2021/07/28 00:09:24;;;;;;;8.45;5.30;;;27.20;45.90;;;;;;5055254;28;20379;-67
2021/07/28 00:11:49;;;;;;;9.43;4.95;;;27.20;45.90;;;;;;5073020;28;20016;-67
2021/07/28 00:14:15;;;;;;;9.80;6.00;;;27.10;45.90;;;;;;5073124;28;20360;-69
2021/07/28 00:16:41;;;;;;;8.25;5.53;;;27.10;46.10;;;;;;5071976;28;20047;-69
2021/07/28 00:19:17;;;;;;;7.93;5.00;;;27.00;46.00;;;;;;5073038;28;20036;-68
2021/07/28 00:24:31;;;;;;;7.00;4.70;;;26.80;46.10;;;;;;5072950;28;20391;-69
2021/07/28 00:26:58;;;;;;;6.30;4.55;;;26.80;46.30;;;;;;5055112;28;20382;-68
2021/07/28 00:29:28;;;;;;;8.57;4.07;;;26.70;46.30;;;;;;5072793;28;20025;-68
2021/07/28 00:31:54;;;;;;;7.20;4.20;;;26.70;46.50;;;;;;5072544;28;20490;-67
2021/07/28 00:34:19;;;;;;;5.80;3.90;;;26.60;47.10;;;;;;5072670;28;20037;-67
2021/07/28 00:36:45;;;;;;;6.30;3.70;;;26.50;46.50;;;;;;5071505;28;20032;-67
2021/07/28 00:39:11;;;;;;;5.93;3.65;;;26.50;46.60;;;;;;5072544;28;20032;-67
2021/07/28 00:41:40;;;;;;;7.68;3.60;;;26.40;46.60;;;;;;5072482;28;20476;-67
2021/07/28 00:44:06;;;;;;;6.63;3.70;;;26.40;46.60;;;;;;5072385;28;20039;-67
2021/07/28 00:46:32;;;;;;;5.80;3.58;;;26.40;46.70;;;;;;5072403;28;20020;-67
2021/07/28 00:48:58;;;;;;;6.68;3.55;;;26.30;46.80;;;;;;5072443;28;20029;-67
2021/07/28 00:51:24;;;;;;;6.40;3.65;;;26.30;47.00;;;;;;5072192;28;20048;-67
2021/07/28 00:53:50;;;;;;;5.97;3.60;;;26.30;47.00;;;;;;5072247;28;20103;-67
2021/07/28 00:56:18;;;;;;;5.40;3.58;;;26.20;47.00;;;;;;5072242;28;20106;-68
2021/07/28 00:58:44;;;;;;;7.80;4.28;;;26.20;47.10;;;;;;5071184;28;20029;-67
2021/07/28 01:01:10;;;;;;;6.97;4.03;;;26.20;47.40;;;;;;5071835;28;20021;-68
2021/07/28 01:03:36;;;;;;;6.80;4.35;;;26.10;47.40;;;;;;5071732;28;20044;-68
2021/07/28 01:06:02;;;;;;;7.78;4.30;;;26.10;47.50;;;;;;5071975;28;20054;-68
2021/07/28 01:08:28;;;;;;;7.65;4.50;;;26.00;47.70;;;;;;5071997;28;20028;-68
2021/07/28 01:10:59;;;;;;;6.90;4.50;;;25.90;47.70;;;;;;5071852;28;20518;-67
2021/07/28 01:13:29;;;;;;;7.17;4.57;;;25.90;47.80;;;;;;5054194;28;20051;-67
2021/07/28 01:16:04;;;;;;;7.32;4.80;;;25.90;47.90;;;;;;5070871;28;20112;-68
2021/07/28 01:18:29;;;;;;;7.00;4.85;;;25.80;48.00;;;;;;5072179;28;20896;-68
2021/07/28 01:20:55;;;;;;;6.50;4.55;;;25.80;48.10;;;;;;5053875;28;20036;-68
2021/07/28 01:23:23;;;;;;;7.15;4.70;;;25.70;48.10;;;;;;5071699;28;20029;-68
2021/07/28 01:25:51;;;;;;;7.55;5.18;;;25.70;48.40;;;;;;5071580;28;20024;-68
2021/07/28 01:28:19;;;;;;;7.20;4.85;;;25.70;48.60;;;;;;5071740;28;20028;-69
2021/07/28 01:30:56;;;;;;;6.78;5.18;;;25.70;48.70;;;;;;5071778;28;20079;-69
2021/07/28 01:33:21;;;;;;;7.25;4.57;;;25.70;48.90;;;;;;5070320;28;20025;-67
2021/07/28 01:35:47;;;;;;;6.05;4.53;;;25.70;49.00;;;;;;5053716;28;20292;-68
2021/07/28 01:38:13;;;;;;;7.07;5.03;;;25.60;49.00;;;;;;5071434;28;20119;-68
2021/07/28 01:40:39;;;;;;;6.40;4.30;;;25.60;49.10;;;;;;5053596;28;20025;-68
2021/07/28 01:43:15;;;;;;;6.03;4.30;;;25.60;49.20;;;;;;5071556;28;20024;-67
2021/07/28 01:45:43;;;;;;;6.65;4.60;;;25.60;49.20;;;;;;5071541;28;20452;-67
2021/07/28 01:48:09;;;;;;;7.57;5.00;;;25.50;49.30;;;;;;5071681;28;20039;-67
2021/07/28 01:50:36;;;;;;;6.65;4.68;;;25.50;49.60;;;;;;5071730;28;20025;-67
2021/07/28 01:53:03;;;;;;;7.88;5.22;;;25.50;49.70;;;;;;5071541;28;20388;-67
2021/07/28 01:55:30;;;;;;;6.55;4.68;;;25.50;49.90;;;;;;5071435;28;20104;-67
2021/07/28 01:57:55;;;;;;;7.15;4.95;;;25.50;50.10;;;;;;5071398;28;20029;-67
2021/07/28 02:00:22;;;;;;;8.95;5.32;;;25.40;50.10;;;;;;5070653;28;20139;-68
2021/07/28 02:02:48;;;;;;;7.38;4.88;;;25.50;50.30;;;;;;5071266;28;20048;-68
2021/07/28 02:05:13;;;;;;;7.57;5.20;;;25.40;50.20;;;;;;5053360;28;20024;-67
2021/07/28 02:07:39;;;;;;;7.15;4.95;;;25.40;50.20;;;;;;5071571;28;20154;-68
2021/07/28 02:10:06;;;;;;;8.25;4.75;;;25.40;50.20;;;;;;5071462;28;20107;-68
2021/07/28 02:12:32;;;;;;;6.93;4.90;;;25.40;50.30;;;;;;5052893;28;20035;-68
2021/07/28 02:14:57;;;;;;;7.13;5.05;;;25.40;50.40;;;;;;5053396;28;20033;-68
2021/07/28 02:17:23;;;;;;;7.63;5.38;;;25.40;50.50;;;;;;5052990;28;20068;-68
2021/07/28 02:19:49;;;;;;;8.65;5.32;;;25.40;50.60;;;;;;5053322;28;20029;-68
2021/07/28 02:22:15;;;;;;;9.35;6.10;;;25.40;50.70;;;;;;5069856;28;20040;-68
2021/07/28 02:24:42;;;;;;;8.88;6.15;;;25.40;50.70;;;;;;5070522;28;20024;-68
2021/07/28 02:27:08;;;;;;;8.68;5.80;;;25.40;50.80;;;;;;5071337;28;20051;-68
2021/07/28 02:29:35;;;;;;;8.82;6.47;;;25.30;50.80;;;;;;5071186;28;20060;-68
2021/07/28 02:32:02;;;;;;;8.25;6.22;;;25.30;51.10;;;;;;5070859;28;20479;-68
2021/07/28 02:34:31;;;;;;;8.88;6.05;;;25.20;51.20;;;;;;5071151;28;20046;-68
2021/07/28 02:36:57;;;;;;;9.35;6.38;;;25.20;51.20;;;;;;5071298;28;20017;-68
2021/07/28 02:39:23;;;;;;;7.82;6.18;;;25.10;51.30;;;;;;5072116;28;20361;-68
2021/07/28 02:41:49;;;;;;;8.15;6.15;;;25.10;51.50;;;;;;5075010;28;20116;-68
2021/07/28 02:44:15;;;;;;;9.52;6.88;;;25.00;51.50;;;;;;5057059;28;20039;-68
2021/07/28 02:46:40;;;;;;;9.27;6.85;;;25.00;51.60;;;;;;5074899;28;20028;-68
2021/07/28 02:49:06;;;;;;;7.88;6.05;;;25.00;51.90;;;;;;5074250;28;20024;-68
2021/07/28 02:51:32;;;;;;;7.93;6.10;;;25.00;51.90;;;;;;5074565;28;20491;-68
2021/07/28 02:53:57;;;;;;;8.63;6.43;;;24.90;52.00;;;;;;5056437;28;20052;-68
2021/07/28 02:56:23;;;;;;;9.52;6.15;;;24.80;52.00;;;;;;5074209;28;20025;-68
2021/07/28 02:58:49;;;;;;;9.73;6.13;;;24.80;52.10;;;;;;5074591;28;20020;-68
2021/07/28 03:01:14;;;;;;;9.38;6.45;;;24.80;52.70;;;;;;5073919;28;20028;-68
2021/07/28 03:03:40;;;;;;;8.82;6.07;;;24.80;52.30;;;;;;5074242;28;20381;-68
2021/07/28 03:06:06;;;;;;;8.48;5.95;;;24.80;52.30;;;;;;5074075;28;20481;-68
2021/07/28 03:08:31;;;;;;;7.80;5.60;;;24.80;52.30;;;;;;5074413;28;20024;-68
2021/07/28 03:10:57;;;;;;;8.88;5.93;;;24.80;52.30;;;;;;5072951;28;20448;-68
2021/07/28 03:13:23;;;;;;;7.70;6.00;;;24.80;52.40;;;;;;5055631;28;20025;-68
2021/07/28 03:15:50;;;;;;;10.13;6.05;;;24.80;52.40;;;;;;5074235;28;20502;-68
2021/07/28 03:18:16;;;;;;;9.23;6.35;;;24.80;52.40;;;;;;5073967;28;20048;-68
2021/07/28 03:20:43;;;;;;;8.40;6.25;;;24.80;52.60;;;;;;5074240;28;20117;-68
2021/07/28 03:23:09;;;;;;;8.25;6.38;;;24.70;52.60;;;;;;5073352;28;20443;-68
2021/07/28 03:25:34;;;;;;;8.35;6.30;;;24.70;52.80;;;;;;5055824;28;20117;-68
2021/07/28 03:28:00;;;;;;;9.95;6.80;;;24.70;52.80;;;;;;5074140;28;20159;-68
2021/07/28 03:30:26;;;;;;;8.73;6.60;;;24.70;52.80;;;;;;5073866;28;20128;-68
2021/07/28 03:32:51;;;;;;;8.55;6.35;;;24.80;52.90;;;;;;5067755;28;20020;-68
2021/07/28 03:35:17;;;;;;;8.38;6.72;;;24.80;52.90;;;;;;5073828;28;20024;-68
2021/07/28 03:37:43;;;;;;;9.77;6.63;;;24.80;53.00;;;;;;5055722;28;20020;-69
2021/07/28 03:40:11;;;;;;;10.15;6.22;;;24.80;53.10;;;;;;5073673;28;20040;-68
2021/07/28 03:42:36;;;;;;;8.90;6.75;;;24.90;53.10;;;;;;5055362;28;20442;-69
2021/07/28 03:45:02;;;;;;;8.05;5.72;;;24.90;53.00;;;;;;5073551;28;20025;-69
2021/07/28 03:47:28;;;;;;;9.70;7.05;;;24.90;53.10;;;;;;5073364;28;20029;-68
2021/07/28 03:49:54;;;;;;;9.20;6.68;;;24.90;53.10;;;;;;5073303;28;20028;-69
2021/07/28 03:52:19;;;;;;;8.85;6.45;;;25.00;53.20;;;;;;5073185;28;20031;-69
2021/07/28 03:54:45;;;;;;;8.90;6.57;;;25.00;53.10;;;;;;5073183;28;20468;-69
2021/07/28 03:57:14;;;;;;;10.43;7.18;;;24.90;53.30;;;;;;5073383;28;20464;-69
2021/07/28 03:59:40;;;;;;;9.25;6.70;;;24.90;53.50;;;;;;5073030;28;20177;-68
2021/07/28 04:02:08;;;;;;;10.18;6.47;;;24.90;53.60;;;;;;5072495;28;20029;-68
2021/07/28 04:04:34;;;;;;;8.20;5.68;;;24.90;53.70;;;;;;5073097;28;20041;-69
2021/07/28 04:06:59;;;;;;;8.85;6.22;;;24.90;53.70;;;;;;5073083;28;20421;-67
2021/07/28 04:09:25;;;;;;;8.32;6.15;;;25.00;53.80;;;;;;5072998;28;20016;-68
2021/07/28 04:11:51;;;;;;;8.35;6.35;;;25.00;53.70;;;;;;5072443;28;20375;-68
2021/07/28 04:14:17;;;;;;;8.13;5.57;;;25.00;53.80;;;;;;5072475;28;20116;-68
2021/07/28 04:16:43;;;;;;;7.97;6.13;;;25.10;53.80;;;;;;5072871;28;20036;-68
2021/07/28 04:19:08;;;;;;;8.35;5.78;;;25.10;53.70;;;;;;5072791;28;20035;-68
2021/07/28 04:21:34;;;;;;;6.85;5.28;;;25.20;53.80;;;;;;5072710;28;20085;-68
2021/07/28 04:23:59;;;;;;;7.45;5.40;;;25.30;53.80;;;;;;5072442;28;20097;-68
2021/07/28 04:26:25;;;;;;;7.10;4.97;;;25.30;53.60;;;;;;5072796;28;20467;-68
2021/07/28 04:28:51;;;;;;;8.07;5.35;;;25.30;53.60;;;;;;5072482;28;20334;-68
2021/07/28 04:31:17;;;;;;;7.05;5.15;;;25.30;53.50;;;;;;5072049;28;20021;-68
2021/07/28 04:33:43;;;;;;;7.97;5.00;;;25.30;53.50;;;;;;5072190;28;20032;-68
2021/07/28 04:36:09;;;;;;;7.88;5.13;;;25.40;53.40;;;;;;5072142;28;20025;-68
2021/07/28 04:38:34;;;;;;;7.60;5.60;;;25.40;53.50;;;;;;5072505;28;20060;-68
2021/07/28 04:41:00;;;;;;;7.90;5.63;;;25.40;53.40;;;;;;5072425;28;20113;-68
2021/07/28 04:43:26;;;;;;;6.85;5.20;;;25.40;53.40;;;;;;5063949;28;20024;-68
2021/07/28 04:45:59;;;;;;;7.47;5.43;;;25.40;53.30;;;;;;5072046;28;20028;-67
2021/07/28 04:48:29;;;;;;;8.35;5.63;;;25.50;53.30;;;;;;5071970;28;20109;-68
2021/07/28 04:50:57;;;;;;;7.75;6.15;;;25.50;53.40;;;;;;5071838;28;20464;-68
2021/07/28 04:53:28;;;;;;;7.82;5.57;;;25.60;53.40;;;;;;5071328;28;20016;-68
2021/07/28 04:55:54;;;;;;;8.52;5.35;;;25.70;53.20;;;;;;5070752;28;20099;-69
2021/07/28 04:58:20;;;;;;;7.28;5.35;;;25.70;53.10;;;;;;5071847;28;20031;-69
2021/07/28 05:00:47;;;;;;;8.45;5.50;;;25.70;53.00;;;;;;5052607;28;20028;-69
2021/07/28 05:03:12;;;;;;;8.90;6.15;;;25.90;53.10;;;;;;5056732;28;20045;-69
2021/07/28 05:05:38;;;;;;;7.85;5.90;;;25.90;53.20;;;;;;5071767;28;20086;-68
2021/07/28 05:08:04;;;;;;;8.60;6.47;;;26.00;53.20;;;;;;5071491;28;20035;-68
2021/07/28 05:10:29;;;;;;;8.73;6.30;;;26.10;53.10;;;;;;5071794;28;20023;-69
2021/07/28 05:12:55;;;;;;;8.20;5.90;;;26.20;53.10;;;;;;5071176;28;20025;-69
2021/07/28 05:15:21;;;;;;;7.90;5.88;;;26.30;53.00;;;;;;5071774;28;20103;-69
2021/07/28 05:17:46;;;;;;;8.57;6.15;;;26.50;53.00;;;;;;5071688;28;20052;-69
2021/07/28 05:20:12;;;;;;;7.93;6.10;;;26.60;52.90;;;;;;5071182;28;20032;-69
2021/07/28 05:22:38;;;;;;;8.45;5.90;;;26.70;52.70;;;;;;5071417;28;20107;-69
2021/07/28 05:25:04;;;;;;;8.25;5.80;;;26.80;52.60;;;;;;5071197;28;20100;-69
2021/07/28 05:27:30;;;;;;;7.97;5.70;;;26.90;52.60;;;;;;5071380;28;20029;-69
2021/07/28 05:29:56;;;;;;;9.23;5.90;;;27.00;52.50;;;;;;5070719;28;20061;-68
2021/07/28 05:32:23;;;;;;;8.98;6.15;;;27.10;52.30;;;;;;5070920;28;20027;-69
2021/07/28 05:34:51;;;;;;;8.23;6.00;;;27.10;52.30;;;;;;5071385;28;20046;-69
2021/07/28 05:37:20;;;;;;;8.48;5.68;;;27.10;52.30;;;;;;5071486;28;20029;-68
2021/07/28 05:39:46;;;;;;;8.73;6.07;;;27.20;52.90;;;;;;5071357;28;20040;-69
2021/07/28 05:42:12;;;;;;;8.85;6.35;;;27.10;52.30;;;;;;5071131;28;20032;-69
2021/07/28 05:44:38;;;;;;;8.35;6.00;;;27.30;52.40;;;;;;5071439;28;20058;-69
2021/07/28 05:47:04;;;;;;;8.48;6.22;;;27.30;52.40;;;;;;5071228;28;20104;-69
2021/07/28 05:49:30;;;;;;;7.97;5.93;;;27.40;52.40;;;;;;5071324;28;20016;-69
2021/07/28 05:51:55;;;;;;;8.90;6.40;;;27.40;52.30;;;;;;5070862;28;20047;-69
2021/07/28 05:54:21;;;;;;;8.65;6.57;;;27.50;52.30;;;;;;5071223;28;20025;-69
2021/07/28 05:56:47;;;;;;;9.40;7.32;;;27.70;52.30;;;;;;5071001;28;20472;-69
2021/07/28 05:59:13;;;;;;;12.27;8.07;;;27.70;52.20;;;;;;5071422;28;20425;-69
2021/07/28 06:01:39;;;;;;;10.95;8.60;;;27.70;52.10;;;;;;5070570;28;20954;-68
2021/07/28 06:04:05;;;;;;;10.40;7.82;;;27.70;52.10;;;;;;5070815;28;20105;-68
2021/07/28 06:06:30;;;;;;;9.75;7.47;;;27.70;52.10;;;;;;5053420;28;20027;-69
2021/07/28 06:08:57;;;;;;;11.40;7.90;;;27.70;52.20;;;;;;5070978;28;20032;-69
2021/07/28 06:11:23;;;;;;;12.05;8.18;;;27.70;52.20;;;;;;5052443;28;20533;-68
2021/07/28 06:13:49;;;;;;;14.43;9.00;;;27.70;52.30;;;;;;5071163;28;20025;-69
2021/07/28 06:16:14;;;;;;;11.10;7.82;;;27.70;52.30;;;;;;5074803;28;20127;-70
2021/07/28 06:18:40;;;;;;;12.07;7.85;;;27.70;52.40;;;;;;5067399;28;20031;-70
2021/07/28 06:21:06;;;;;;;11.65;8.10;;;27.60;52.30;;;;;;5061971;28;20487;-70
2021/07/28 06:23:33;;;;;;;12.35;8.32;;;27.50;52.40;;;;;;5063285;28;20045;-69
2021/07/28 06:25:59;;;;;;;12.88;8.93;;;27.50;52.50;;;;;;5074327;28;20027;-69
2021/07/28 06:28:26;;;;;;;15.85;10.70;;;27.50;52.60;;;;;;5073216;28;20023;-70
2021/07/28 06:30:53;;;;;;;14.50;11.05;;;27.40;53.00;;;;;;5073557;28;20119;-71
2021/07/28 06:33:19;;;;;;;14.50;10.60;;;27.30;53.30;;;;;;5075082;28;20028;-71
2021/07/28 06:35:48;;;;;;;11.02;8.60;;;27.20;53.50;;;;;;5074753;28;20021;-71
2021/07/28 06:38:14;;;;;;;12.85;9.23;;;27.00;53.60;;;;;;5074511;28;20052;-70
2021/07/28 06:40:41;;;;;;;12.73;8.40;;;26.90;53.80;;;;;;5074356;28;20032;-70
2021/07/28 06:43:07;;;;;;;10.25;8.05;;;26.80;53.90;;;;;;5074310;28;20024;-72
2021/07/28 06:45:32;;;;;;;10.15;7.82;;;26.70;54.10;;;;;;5067347;28;20040;-72
2021/07/28 06:47:58;;;;;;;11.70;8.65;;;26.60;54.30;;;;;;5061539;28;20411;-72
2021/07/28 06:50:24;;;;;;;13.43;9.93;;;26.50;54.80;;;;;;5078284;28;20021;-63
2021/07/28 06:52:49;;;;;;;16.92;12.73;;;26.40;56.00;;;;;;5067137;28;20379;-61
2021/07/28 06:55:15;;;;;;;15.13;13.38;;;26.00;58.40;;;;;;5070990;28;20036;-63
2021/07/28 06:57:41;;;;;;;15.30;12.95;;;25.50;62.60;;;;;;5065854;28;20039;-65
2021/07/28 07:00:07;;;;;;;12.10;9.05;;;24.80;65.90;;;;;;5071031;28;20025;-64
2021/07/28 07:02:33;;;;;;;12.18;8.43;;;24.10;67.90;;;;;;5052571;28;20850;-64
2021/07/28 07:04:58;;;;;;;11.55;9.10;;;23.50;70.30;;;;;;5068581;28;20107;-64
2021/07/28 07:07:24;;;;;;;11.52;7.03;;;23.00;72.60;;;;;;5071191;28;20032;-64
2021/07/28 07:09:52;;;;;;;9.57;5.53;;;22.50;78.20;;;;;;5055459;28;20033;-64
2021/07/28 07:12:18;;;;;;;12.18;6.15;;;22.00;79.70;;;;;;5060587;28;20028;-65
2021/07/28 07:14:45;;;;;;;11.93;6.53;;;21.40;83.10;;;;;;5066013;28;20025;-65
2021/07/28 07:17:11;;;;;;;10.93;6.55;;;20.90;88.70;;;;;;5062133;28;20021;-66
2021/07/28 07:19:37;;;;;;;11.13;6.95;;;20.40;90.50;;;;;;5055275;28;20044;-63
2021/07/28 07:22:03;;;;;;;12.55;8.00;;;20.00;91.20;;;;;;5071065;28;20425;-61
2021/07/28 07:24:29;;;;;;;11.27;7.55;;;19.90;91.40;;;;;;5078546;28;20364;-60
2021/07/28 07:26:54;;;;;;;13.50;9.63;;;19.70;92.20;;;;;;5075445;28;20036;-63
2021/07/28 07:29:20;;;;;;;15.88;10.20;;;19.60;92.50;;;;;;5072530;28;20036;-64
2021/07/28 07:31:46;;;;;;;16.05;10.85;;;19.70;92.80;;;;;;5062797;28;20472;-63
2021/07/28 07:34:12;;;;;;;13.15;10.25;;;19.80;92.40;;;;;;5069928;28;20037;-63
2021/07/28 07:36:37;;;;;;;16.00;11.10;;;19.80;92.80;;;;;;5054606;28;20029;-63
2021/07/28 07:39:04;;;;;;;14.50;11.13;;;20.00;91.90;;;;;;5070799;28;20025;-63
2021/07/28 07:41:30;;;;;;;15.35;11.75;;;20.10;91.50;;;;;;5054006;28;20444;-63
2021/07/28 07:43:57;;;;;;;15.32;11.20;;;20.10;91.60;;;;;;5058159;28;20031;-63
2021/07/28 07:46:23;;;;;;;15.98;11.30;;;20.20;91.90;;;;;;5058038;28;20017;-63
2021/07/28 07:48:49;;;;;;;16.13;11.77;;;20.40;91.50;;;;;;5083549;28;20025;-63
2021/07/28 07:51:15;;;;;;;17.75;12.07;;;20.50;91.50;;;;;;5071088;28;20513;-62
2021/07/28 07:53:41;;;;;;;19.42;12.68;;;20.60;91.60;;;;;;5053373;28;20472;-63
2021/07/28 07:56:07;;;;;;;17.35;12.88;;;20.70;91.50;;;;;;5057308;28;20033;-64
2021/07/28 07:58:35;;;;;;;18.45;13.45;;;20.90;91.60;;;;;;5059170;28;20020;-62
2021/07/28 08:01:08;;;;;;;16.20;12.57;;;21.10;91.30;;;;;;5069231;28;20047;-64
2021/07/28 08:03:35;;;;;;;16.15;13.00;;;21.20;91.20;;;;;;5057939;28;20095;-63
2021/07/28 08:06:00;;;;;;;16.63;13.10;;;21.40;91.20;;;;;;5064119;28;20032;-63
2021/07/28 08:08:26;;;;;;;17.08;11.48;;;21.60;91.20;;;;;;5063394;28;20020;-63
2021/07/28 08:10:55;;;;;;;15.32;12.98;;;21.80;91.80;;;;;;5066704;28;20095;-63
2021/07/28 08:13:21;;;;;;;17.13;12.60;;;22.00;91.40;;;;;;5063532;28;20028;-64
2021/07/28 08:15:46;;;;;;;16.10;12.18;;;22.20;90.90;;;;;;5064008;28;20119;-63
2021/07/28 08:18:12;;;;;;;15.40;13.50;;;22.40;91.30;;;;;;5059961;28;20429;-64
2021/07/28 08:20:38;;;;;;;21.58;15.52;;;22.50;91.00;;;;;;5063387;28;20532;-64
2021/07/28 08:23:04;;;;;;;44.95;24.83;;;22.70;90.50;;;;;;5072186;28;20361;-63
2021/07/28 08:25:29;;;;;;;75.35;33.83;;;22.90;90.00;;;;;;5071687;28;20735;-63
2021/07/28 08:27:55;;;;;;;106.60;43.72;;;23.00;90.20;;;;;;5053833;28;20028;-63
2021/07/28 08:30:21;;;;;;;136.93;54.03;;;23.20;90.40;;;;;;5071862;28;20025;-64
2021/07/28 08:32:47;;;;;;;144.90;56.05;;;23.50;90.10;;;;;;5068634;28;20028;-63
2021/07/28 08:35:13;;;;;;;144.90;56.78;;;23.80;90.60;;;;;;5071997;28;20029;-64
2021/07/28 08:37:40;;;;;;;126.95;49.28;;;24.10;89.70;;;;;;5071348;28;20024;-63
2021/07/28 08:40:14;;;;;;;102.82;43.08;;;24.30;89.80;;;;;;5072154;28;20099;-64
2021/07/28 08:42:41;;;;;;;75.10;35.22;;;24.70;87.70;;;;;;5072109;28;20076;-63
2021/07/28 08:45:08;;;;;;;71.45;35.08;;;25.00;87.90;;;;;;5071893;28;20021;-63
2021/07/28 08:47:36;;;;;;;60.67;29.55;;;25.20;84.30;;;;;;5071087;28;20396;-63
2021/07/28 08:50:06;;;;;;;46.67;25.25;;;25.50;85.10;;;;;;5072109;28;20020;-63
2021/07/28 08:52:36;;;;;;;42.42;23.52;;;25.80;84.60;;;;;;5071682;28;20313;-64
2021/07/28 08:55:02;;;;;;;35.30;20.40;;;26.10;83.60;;;;;;5072297;28;20470;-63
2021/07/28 08:57:31;;;;;;;29.30;16.75;;;26.50;80.90;;;;;;5065615;28;20112;-63
2021/07/28 08:59:57;;;;;;;32.80;20.13;;;26.70;83.50;;;;;;5064926;28;20103;-64
2021/07/28 09:02:23;;;;;;;29.77;18.13;;;27.10;83.40;;;;;;5071688;28;20043;-65
2021/07/28 09:04:49;;;;;;;31.05;18.85;;;27.60;82.60;;;;;;5060621;28;20078;-63
2021/07/28 09:07:15;;;;;;;27.95;16.15;;;28.20;81.90;;;;;;5062135;28;20425;-63
2021/07/28 09:09:48;;;;;;;21.15;13.85;;;28.60;80.60;;;;;;5051225;28;20016;-63
2021/07/28 09:12:15;;;;;;;17.20;11.25;;;29.10;79.70;;;;;;5059123;28;20021;-63
2021/07/28 09:14:52;;;;;;;13.20;9.73;;;29.60;79.40;;;;;;5076829;28;20029;-63
2021/07/28 09:17:20;;;;;;;13.70;8.85;;;30.10;80.30;;;;;;5060341;28;20813;-63
2021/07/28 09:19:50;;;;;;;15.93;11.02;;;30.60;78.80;;;;;;5067219;28;20016;-64
2021/07/28 09:22:20;;;;;;;13.95;9.70;;;31.10;73.60;;;;;;5063632;28;20479;-62
2021/07/28 09:25:19;;;;;;;16.98;11.15;;;31.40;75.00;;;;;;5071379;28;20084;-64
2021/07/28 09:27:59;;;;;;;15.48;9.85;;;31.80;67.70;;;;;;5072553;28;20041;-62
2021/07/28 09:30:24;;;;;;;16.70;10.25;;;32.20;71.60;;;;;;5068075;28;20050;-63
2021/07/28 09:32:59;;;;;;;18.27;12.52;;;32.60;70.80;;;;;;5062509;28;20020;-63
2021/07/28 09:35:48;;;;;;;14.57;10.25;;;33.20;59.90;;;;;;5085208;28;20052;-63
2021/07/28 09:38:37;;;;;;;18.80;12.20;;;33.40;56.40;;;;;;5071718;28;20032;-64
2021/07/28 09:41:28;;;;;;;15.15;10.68;;;33.40;58.90;;;;;;5071384;28;20024;-63
2021/07/28 09:43:57;;;;;;;10.70;8.77;;;33.50;57.40;;;;;;5090061;28;20046;-63
2021/07/28 09:46:29;;;;;;;9.20;7.40;;;33.80;55.70;;;;;;5091473;28;20028;-64
2021/07/28 09:48:55;;;;;;;8.93;6.63;;;33.80;55.50;;;;;;5091171;28;20039;-65
2021/07/28 09:51:22;;;;;;;8.45;7.00;;;33.60;55.90;;;;;;5081500;28;20044;-64
2021/07/28 09:54:00;;;;;;;11.80;7.60;;;33.90;52.80;;;;;;5070457;28;20436;-64
2021/07/28 09:56:36;;;;;;;7.70;6.90;;;34.00;51.40;;;;;;5051519;28;20431;-63
2021/07/28 09:59:04;;;;;;;8.15;6.43;;;33.60;53.20;;;;;;5051219;28;20079;-64
2021/07/28 10:01:35;;;;;;;10.65;7.97;;;33.70;54.10;;;;;;5033387;28;20029;-63
2021/07/28 10:04:01;;;;;;;;;;;33.90;51.80;;;;;;5055425;28;20040;-63
2021/07/28 10:06:33;;;;;;;9.23;7.38;;;33.80;51.50;;;;;;5044911;28;19916;-63
2021/07/28 10:09:00;;;;;;;9.10;7.97;;;33.50;53.30;;;;;;5072295;28;20124;-63
2021/07/28 10:11:26;;;;;;;9.45;8.10;;;33.60;52.70;;;;;;5076004;28;20028;-62
2021/07/28 10:13:53;;;;;;;10.07;7.80;;;33.60;53.20;;;;;;5054903;28;20025;-62
2021/07/28 10:16:18;;;;;;;10.38;8.25;;;33.80;53.30;;;;;;5070734;28;20101;-64
2021/07/28 10:18:49;;;;;;;11.52;8.65;;;33.80;52.90;;;;;;5078702;28;20119;-62
2021/07/28 10:21:16;;;;;;;10.65;8.48;;;33.90;52.50;;;;;;5049579;28;20472;-62
2021/07/28 10:23:43;;;;;;;10.40;8.15;;;34.20;50.70;;;;;;5049302;28;20040;-63
2021/07/28 10:26:12;;;;;;;10.02;7.90;;;34.40;49.10;;;;;;5050689;28;20025;-63
2021/07/28 10:28:39;;;;;;;12.13;7.95;;;34.20;49.50;;;;;;5064713;28;20059;-62
2021/07/28 10:31:19;;;;;;;10.13;7.60;;;34.30;49.20;;;;;;5071105;28;20107;-63
2021/07/28 10:33:50;;;;;;;12.05;8.25;;;34.10;49.80;;;;;;5070823;28;20016;-63
2021/07/28 10:36:16;;;;;;;;;;;34.00;50.00;;;;;;5071288;28;20033;-62
2021/07/28 10:38:53;;;;;;;10.23;7.95;;;34.00;50.60;;;;;;5070546;28;19904;-63
2021/07/28 10:41:37;;;;;;;10.88;8.07;;;34.70;49.40;;;;;;5070892;28;20078;-63
2021/07/28 10:44:13;;;;;;;11.93;8.65;;;35.00;49.40;;;;;;5070524;28;20383;-64
2021/07/28 10:46:57;;;;;;;10.32;8.10;;;35.40;48.40;;;;;;5052912;28;20112;-61
2021/07/28 10:49:34;;;;;;;9.88;7.68;;;35.10;48.50;;;;;;5070768;28;20043;-63
2021/07/28 10:52:01;;;;;;;11.45;7.75;;;35.30;48.80;;;;;;5063223;28;20017;-64
2021/07/28 10:54:46;;;;;;;9.18;7.95;;;35.50;48.60;;;;;;5050497;28;20025;-63
2021/07/28 10:57:33;;;;;;;10.55;7.85;;;35.70;47.70;;;;;;5052000;28;20021;-62
2021/07/28 10:59:59;;;;;;;9.35;7.78;;;35.70;46.60;;;;;;5071127;28;20150;-63
2021/07/28 11:02:57;;;;;;;9.25;7.38;;;35.90;47.50;;;;;;5074261;28;20032;-64
2021/07/28 11:05:31;;;;;;;9.82;7.70;;;35.90;46.60;;;;;;5072901;28;20028;-62
2021/07/28 11:08:05;;;;;;;9.93;7.75;;;36.00;46.80;;;;;;5073934;28;20013;-64
2021/07/28 11:10:37;;;;;;;10.73;7.88;;;36.20;46.50;;;;;;5074130;28;20028;-63
2021/07/28 11:13:09;;;;;;;10.63;7.70;;;36.20;46.20;;;;;;5074097;28;20357;-62
2021/07/28 11:15:36;;;;;;;10.80;8.02;;;36.20;45.30;;;;;;5074230;28;20077;-65
2021/07/28 11:18:02;;;;;;;10.02;7.30;;;36.50;45.30;;;;;;5074162;28;20029;-63
2021/07/28 11:20:37;;;;;;;9.77;7.88;;;36.20;46.10;;;;;;5073750;28;20081;-63
2021/07/28 11:23:21;;;;;;;9.63;7.53;;;36.40;45.80;;;;;;5073599;28;20051;-63
2021/07/28 11:25:51;;;;;;;9.52;7.47;;;36.50;45.50;;;;;;5073592;28;20103;-63
2021/07/28 11:28:20;;;;;;;11.55;7.82;;;36.50;45.80;;;;;;5073762;28;20024;-63
2021/07/28 11:31:01;;;;;;;11.63;7.80;;;36.40;45.90;;;;;;5073516;28;20103;-63
2021/07/28 11:33:28;;;;;;;12.33;8.20;;;36.50;45.50;;;;;;5074188;28;20090;-62
2021/07/28 11:35:55;;;;;;;9.07;7.70;;;36.70;45.70;;;;;;5073797;28;20094;-64
2021/07/28 11:38:31;;;;;;;10.15;7.68;;;36.50;46.20;;;;;;5073833;28;20712;-64
2021/07/28 11:40:59;;;;;;;9.13;7.55;;;36.70;46.00;;;;;;5053383;28;20033;-61
2021/07/28 11:43:39;;;;;;;9.02;8.13;;;37.00;46.10;;;;;;5052861;28;20021;-62
2021/07/28 11:46:12;;;;;;;10.23;7.80;;;37.30;45.40;;;;;;5052090;28;20028;-63
2021/07/28 11:48:41;;;;;;;10.13;7.95;;;37.30;44.90;;;;;;5035174;28;20039;-63
2021/07/28 11:51:16;;;;;;;10.05;7.97;;;37.00;45.40;;;;;;5053032;28;20017;-63
2021/07/28 11:53:42;;;;;;;10.40;8.02;;;37.30;45.70;;;;;;5052887;28;20045;-63
2021/07/28 11:56:12;;;;;;;10.65;7.85;;;37.60;45.90;;;;;;5052871;28;20064;-62
2021/07/28 11:58:49;;;;;;;9.70;8.35;;;37.90;44.80;;;;;;5053174;28;20384;-62
2021/07/28 12:01:26;;;;;;;10.00;8.60;;;38.10;44.90;;;;;;5056229;28;20387;-64
2021/07/28 12:04:08;;;;;;;9.77;8.27;;;38.40;44.10;;;;;;5068973;28;20072;-64
2021/07/28 12:06:34;;;;;;;10.13;8.00;;;38.30;44.30;;;;;;5068080;28;20023;-63
2021/07/28 12:09:15;;;;;;;10.07;7.95;;;38.60;44.50;;;;;;5053462;28;20395;-62
2021/07/28 12:11:54;;;;;;;10.85;7.90;;;39.00;44.20;;;;;;5070139;28;20468;-62
2021/07/28 12:14:38;;;;;;;9.35;7.70;;;39.00;43.90;;;;;;5072705;28;20024;-62
2021/07/28 12:17:17;;;;;;;9.25;7.55;;;39.30;43.50;;;;;;5063611;28;20111;-62
2021/07/28 12:20:01;;;;;;;10.00;7.63;;;39.60;43.50;;;;;;5071647;28;20028;-63
2021/07/28 12:22:39;;;;;;;8.27;7.47;;;39.90;43.10;;;;;;5072929;28;20127;-63
2021/07/28 12:25:23;;;;;;;10.48;7.57;;;40.00;43.10;;;;;;5072475;28;20051;-63
2021/07/28 12:27:55;;;;;;;11.93;7.90;;;40.00;42.20;;;;;;5072485;28;20025;-63
2021/07/28 12:30:39;;;;;;;11.07;7.72;;;40.30;41.50;;;;;;5057975;28;20034;-63
2021/07/28 12:33:17;;;;;;;9.77;7.32;;;40.30;41.20;;;;;;5072533;28;20025;-63
2021/07/28 12:35:47;;;;;;;9.57;7.35;;;40.30;41.40;;;;;;5072726;28;20028;-63
2021/07/28 12:38:20;;;;;;;10.48;6.93;;;40.50;41.20;;;;;;5072913;28;20074;-62
2021/07/28 12:41:03;;;;;;;8.45;7.00;;;40.90;41.00;;;;;;5072643;28;20039;-63
2021/07/28 12:43:34;;;;;;;9.45;7.03;;;41.10;40.00;;;;;;5072171;28;20146;-64
2021/07/28 12:46:01;;;;;;;9.35;6.70;;;40.80;40.00;;;;;;5072225;28;20029;-63
2021/07/28 12:48:29;;;;;;;9.85;6.82;;;40.70;39.30;;;;;;5054396;28;20020;-63
2021/07/28 12:50:58;;;;;;;8.60;6.68;;;40.60;39.40;;;;;;5054385;28;20029;-63